Heaton, North Carolina
Current Conditions -  °F | °C
As of 7:55 PM on Wednesday 22 Oct 2014 (Local Time) from KTNB Reporting Station
Broken Clouds Broken Clouds  
Wind Chill: 34°   Ceiling: 2400
Heat Index: 42°   Visibility: 10mi
Dew Point: 34°   Wind: 17mph
Humidity: 73%   Direction: 310°NW
Pressure: 30.12"   Gusts: 31mph
Location:  36.1731°N, 81.9572°W
Report Text: KTNB 222355Z AUTO 31015G27KT 10SM SCT018 BKN024 06/01 A3012 RMK AO2 T00550011 10081 20055
Loading
Personal Weather Stations






























Interactive Weather Map
Tropical Storm Tracking
New forecast layout! Learn more

10-Day Weather Forecast

Advertisements
Track Severe Weather on mobile